createdAt,value
2019-02-27T00:01:57.036Z,34.17
2019-02-27T00:04:25.471Z,36.50
2019-02-27T00:06:53.913Z,36.10
2019-02-27T00:09:22.347Z,38.07
2019-02-27T00:11:50.830Z,34.27
2019-02-27T00:14:20.633Z,35.10
2019-02-27T00:16:49.126Z,39.23
2019-02-27T00:19:17.548Z,39.33
2019-02-27T00:21:46.001Z,36.67
2019-02-27T00:24:14.479Z,37.03
2019-02-27T00:26:43.115Z,38.17
2019-02-27T00:29:11.479Z,43.37
2019-02-27T00:31:40.014Z,39.13
2019-02-27T00:34:08.400Z,37.40
2019-02-27T00:36:36.791Z,35.57
2019-02-27T00:39:05.655Z,34.07
2019-02-27T00:41:34.197Z,34.10
2019-02-27T00:44:02.743Z,35.33
2019-02-27T00:46:31.188Z,35.60
2019-02-27T00:48:59.876Z,33.60
2019-02-27T00:51:28.399Z,34.67
2019-02-27T00:53:58.299Z,37.07
2019-02-27T00:56:27.032Z,40.63
2019-02-27T00:58:59.883Z,37.87
2019-02-27T01:01:25.783Z,42.53
2019-02-27T01:03:54.232Z,39.20
2019-02-27T01:06:22.644Z,37.23
2019-02-27T01:08:51.020Z,37.10
2019-02-27T01:11:19.500Z,36.53
2019-02-27T01:13:48.028Z,36.33
2019-02-27T01:16:17.258Z,34.57
2019-02-27T01:18:46.376Z,38.10
2019-02-27T01:21:19.259Z,35.93
2019-02-27T01:23:45.111Z,38.40
2019-02-27T01:26:13.706Z,36.87
2019-02-27T01:28:45.411Z,39.77
2019-02-27T01:31:12.340Z,38.43
2019-02-27T01:33:40.758Z,38.27
2019-02-27T01:36:09.224Z,35.80
2019-02-27T01:38:38.544Z,35.50
2019-02-27T01:41:07.141Z,36.53
2019-02-27T01:43:36.903Z,37.70
2019-02-27T01:46:05.826Z,36.40
2019-02-27T01:48:34.338Z,34.77
2019-02-27T01:51:02.802Z,38.73
2019-02-27T01:53:31.272Z,33.00
2019-02-27T01:55:59.755Z,34.50
2019-02-27T01:58:28.292Z,35.00
2019-02-27T02:00:56.836Z,38.97
2019-02-27T02:03:25.353Z,35.27
2019-02-27T02:05:54.024Z,33.50
2019-02-27T02:08:22.463Z,32.50
2019-02-27T02:10:58.945Z,35.60
2019-02-27T02:13:39.984Z,38.63
2019-02-27T02:16:26.656Z,32.03
2019-02-27T02:19:29.548Z,33.60
2019-02-27T02:22:11.258Z,29.80
2019-02-27T02:24:57.815Z,34.70
2019-02-27T02:27:51.668Z,32.97
2019-02-27T02:30:51.301Z,33.43
2019-02-27T02:33:33.109Z,31.73
2019-02-27T02:36:07.671Z,31.10
2019-02-27T02:38:58.378Z,32.23
2019-02-27T02:41:48.050Z,41.90
2019-02-27T02:44:21.064Z,38.13
2019-02-27T02:47:07.283Z,32.30
2019-02-27T02:49:42.504Z,34.63
2019-02-27T02:52:40.834Z,31.50
2019-02-27T02:55:32.306Z,33.73
2019-02-27T02:58:25.826Z,39.63
2019-02-27T03:01:25.673Z,33.53
2019-02-27T03:04:01.198Z,34.30
2019-02-27T03:06:39.758Z,37.10
2019-02-27T03:09:16.535Z,35.67
2019-02-27T03:12:19.341Z,38.63
2019-02-27T03:14:54.195Z,38.07
2019-02-27T03:17:41.341Z,37.03
2019-02-27T03:20:17.847Z,34.87
2019-02-27T03:23:06.059Z,34.43
2019-02-27T03:25:46.580Z,36.87
2019-02-27T03:28:52.672Z,34.60
2019-02-27T03:31:27.222Z,33.97
2019-02-27T03:34:08.115Z,34.57
2019-02-27T03:36:53.854Z,34.43
2019-02-27T03:39:45.603Z,44.73
2019-02-27T03:42:22.093Z,31.87
2019-02-27T03:45:04.213Z,37.03
2019-02-27T03:47:35.972Z,37.13
2019-02-27T03:50:22.514Z,34.53
2019-02-27T03:53:13.193Z,38.10
2019-02-27T03:56:10.046Z,39.90
2019-02-27T03:58:58.021Z,35.60
2019-02-27T04:01:40.692Z,39.63
2019-02-27T04:04:19.511Z,39.13
2019-02-27T04:07:01.950Z,40.23
2019-02-27T04:09:30.473Z,35.97
2019-02-27T04:11:58.972Z,37.73
2019-02-27T04:14:43.783Z,36.53
2019-02-27T04:17:12.301Z,39.37
2019-02-27T04:19:40.932Z,39.37
2019-02-27T04:22:09.504Z,36.27
2019-02-27T04:24:38.006Z,35.60
2019-02-27T04:27:06.453Z,35.80
2019-02-27T04:29:34.994Z,32.53
2019-02-27T04:32:03.581Z,32.17
2019-02-27T04:34:33.332Z,35.80
2019-02-27T04:37:02.207Z,33.97
2019-02-27T04:39:30.721Z,33.57
2019-02-27T04:41:59.243Z,35.20
2019-02-27T04:44:27.791Z,29.83
2019-02-27T04:46:56.223Z,35.43
2019-02-27T04:49:24.760Z,31.30
2019-02-27T04:51:53.391Z,33.70
2019-02-27T04:54:21.812Z,34.70
2019-02-27T04:56:58.704Z,32.77
2019-02-27T04:59:27.212Z,28.53
2019-02-27T05:01:55.730Z,31.30
2019-02-27T05:04:24.163Z,32.87
2019-02-27T05:06:52.554Z,29.37
2019-02-27T05:09:21.012Z,28.90
2019-02-27T05:11:49.573Z,30.37
2019-02-27T05:14:18.030Z,28.87
2019-02-27T05:16:47.242Z,33.83
2019-02-27T05:19:16.399Z,34.40
2019-02-27T05:21:45.017Z,34.77
2019-02-27T05:24:13.542Z,31.93
2019-02-27T05:26:42.163Z,32.17
2019-02-27T05:29:10.585Z,32.23
2019-02-27T05:31:39.092Z,31.50
2019-02-27T05:34:12.717Z,35.90
2019-02-27T05:36:37.785Z,32.07
2019-02-27T05:39:06.661Z,33.80
2019-02-27T05:41:35.331Z,34.00
2019-02-27T05:44:05.286Z,29.63
2019-02-27T05:46:35.694Z,31.80
2019-02-27T05:49:10.390Z,31.53
2019-02-27T05:51:48.304Z,29.70
2019-02-27T05:54:16.797Z,30.40
2019-02-27T05:56:47.146Z,32.03
2019-02-27T05:59:15.628Z,32.10
2019-02-27T06:04:56.119Z,27.80
2019-02-27T06:07:24.880Z,28.20
2019-02-27T06:09:53.378Z,25.60
2019-02-27T06:12:21.912Z,27.93
2019-02-27T06:14:54.852Z,27.00
2019-02-27T06:17:20.728Z,27.97
2019-02-27T06:19:49.269Z,32.77
2019-02-27T06:22:17.830Z,35.60
2019-02-27T06:24:46.550Z,31.90
2019-02-27T06:27:15.080Z,31.90
2019-02-27T06:29:43.565Z,38.00
2019-02-27T06:32:12.893Z,31.67
2019-02-27T06:34:41.540Z,30.13
2019-02-27T06:37:10.041Z,33.30
2019-02-27T06:39:38.429Z,37.50
2019-02-27T06:42:06.827Z,31.67
2019-02-27T06:44:36.663Z,33.63
2019-02-27T06:47:07.141Z,38.60
2019-02-27T06:49:35.788Z,36.67
2019-02-27T06:52:08.933Z,31.77
2019-02-27T06:54:34.558Z,33.90
2019-02-27T06:57:07.502Z,33.17
2019-02-27T06:59:33.353Z,33.93
2019-02-27T07:02:01.800Z,35.47
2019-02-27T07:04:30.375Z,33.63
2019-02-27T07:07:00.571Z,29.83
2019-02-27T07:09:29.059Z,33.33
2019-02-27T07:11:57.621Z,28.70
2019-02-27T07:14:26.509Z,26.63
2019-02-27T07:16:57.420Z,26.57
2019-02-27T07:19:25.471Z,23.20
2019-02-27T07:21:53.927Z,21.43
2019-02-27T07:24:22.886Z,27.33
2019-02-27T07:26:51.392Z,24.50
2019-02-27T07:29:21.977Z,21.10
2019-02-27T07:31:52.183Z,20.63
2019-02-27T07:34:20.368Z,20.43
2019-02-27T07:36:48.849Z,23.63
2019-02-27T07:39:17.489Z,19.70
2019-02-27T07:41:46.011Z,22.60
2019-02-27T07:44:14.566Z,22.93
2019-02-27T07:46:43.129Z,19.67
2019-02-27T07:49:11.698Z,21.77
2019-02-27T07:51:40.276Z,22.70
2019-02-27T07:54:08.934Z,19.57
2019-02-27T07:56:37.737Z,19.13
2019-02-27T07:59:06.858Z,20.57
2019-02-27T08:01:43.462Z,20.87
2019-02-27T08:04:06.360Z,18.20
2019-02-27T08:06:37.776Z,19.23
2019-02-27T08:09:06.057Z,19.90
2019-02-27T08:11:34.656Z,20.17
2019-02-27T08:14:03.954Z,21.37
2019-02-27T08:16:36.877Z,18.63
2019-02-27T08:19:04.558Z,19.23
2019-02-27T08:21:33.128Z,19.60
2019-02-27T08:24:06.491Z,21.67
2019-02-27T08:26:32.759Z,15.20
2019-02-27T08:29:02.050Z,21.23
2019-02-27T08:31:32.088Z,18.90
2019-02-27T08:34:01.251Z,16.47
2019-02-27T08:36:29.799Z,19.13
2019-02-27T08:38:58.394Z,16.93
2019-02-27T08:41:29.180Z,16.13
2019-02-27T08:43:57.144Z,18.53
2019-02-27T08:46:25.692Z,16.57
2019-02-27T08:48:54.193Z,66.37
2019-02-27T08:51:22.706Z,53.43
2019-02-27T08:53:51.341Z,22.07
2019-02-27T08:56:19.735Z,15.57
2019-02-27T08:58:48.207Z,30.27
2019-02-27T09:01:19.085Z,19.97
2019-02-27T09:03:46.852Z,26.73
2019-02-27T09:06:18.382Z,14.67
2019-02-27T09:08:45.644Z,48.50
2019-02-27T09:11:14.778Z,15.20
2019-02-27T09:13:43.337Z,22.87
2019-02-27T09:16:11.740Z,21.43
2019-02-27T09:18:40.183Z,26.90
2019-02-27T09:21:08.752Z,20.13
2019-02-27T09:23:37.152Z,16.23
2019-02-27T09:26:05.758Z,18.80
2019-02-27T09:28:34.378Z,16.70
2019-02-27T09:31:04.198Z,15.47
2019-02-27T09:33:38.912Z,16.00
2019-02-27T09:36:03.441Z,17.73
2019-02-27T09:38:32.120Z,19.47
2019-02-27T09:41:02.544Z,15.37
2019-02-27T09:43:32.276Z,13.10
2019-02-27T09:46:00.993Z,17.70
2019-02-27T09:48:31.119Z,24.03
2019-02-27T09:50:59.766Z,24.60
2019-02-27T09:53:28.352Z,18.07
2019-02-27T09:55:57.192Z,15.47
2019-02-27T09:58:25.700Z,21.07
2019-02-27T10:01:00.335Z,16.20
2019-02-27T10:03:28.756Z,22.53
2019-02-27T10:05:57.276Z,18.33
2019-02-27T10:08:26.201Z,57.00
2019-02-27T10:10:54.878Z,21.27
2019-02-27T10:13:23.372Z,95.53
2019-02-27T10:15:51.880Z,76.73
2019-02-27T10:18:22.091Z,27.40
2019-02-27T10:20:50.685Z,20.40
2019-02-27T10:23:19.216Z,27.43
2019-02-27T10:25:49.797Z,29.97
2019-02-27T10:28:19.164Z,19.80
2019-02-27T10:30:50.052Z,33.70
2019-02-27T10:33:17.935Z,19.00
2019-02-27T10:35:46.645Z,23.67
2019-02-27T10:38:15.320Z,22.07
2019-02-27T10:40:46.019Z,17.33
2019-02-27T10:43:14.259Z,16.60
2019-02-27T10:45:42.828Z,16.80
2019-02-27T10:48:12.618Z,17.13
2019-02-27T10:50:42.011Z,15.23
2019-02-27T10:53:10.911Z,16.73
2019-02-27T10:55:39.681Z,19.73
2019-02-27T10:58:12.994Z,17.33
2019-02-27T11:00:38.744Z,15.40
2019-02-27T11:03:07.330Z,15.07
2019-02-27T11:05:36.201Z,17.73
2019-02-27T11:08:04.898Z,21.23
2019-02-27T11:10:33.516Z,21.27
2019-02-27T11:13:05.527Z,16.43
2019-02-27T11:15:32.340Z,18.07
2019-02-27T11:18:05.400Z,18.23
2019-02-27T11:20:31.631Z,21.57
2019-02-27T11:23:00.139Z,18.40
2019-02-27T11:25:28.700Z,21.23
2019-02-27T11:27:57.108Z,21.33
2019-02-27T11:30:30.359Z,16.27
2019-02-27T11:32:58.957Z,18.80
2019-02-27T11:35:27.448Z,15.97
2019-02-27T11:37:55.956Z,14.40
2019-02-27T11:40:24.476Z,17.17
2019-02-27T11:42:53.078Z,17.70
2019-02-27T11:45:24.718Z,14.70
2019-02-27T11:47:52.580Z,15.73
2019-02-27T11:50:21.308Z,17.37
2019-02-27T11:52:50.288Z,13.57
2019-02-27T11:55:19.037Z,13.97
2019-02-27T11:57:47.531Z,16.13
2019-02-27T12:00:21.051Z,16.80
2019-02-27T12:02:49.733Z,19.23
2019-02-27T12:05:18.325Z,16.53
2019-02-27T12:07:50.778Z,13.37
2019-02-27T12:10:17.688Z,19.97
2019-02-27T12:12:46.206Z,18.67
2019-02-27T12:15:15.292Z,13.37
2019-02-27T12:17:43.812Z,11.43
2019-02-27T12:20:12.608Z,9.97
2019-02-27T12:22:41.087Z,8.87
2019-02-27T12:25:10.267Z,11.60
2019-02-27T12:27:49.009Z,15.63
2019-02-27T12:30:10.643Z,9.83
2019-02-27T12:32:39.160Z,9.17
2019-02-27T12:35:10.869Z,12.77
2019-02-27T12:37:39.479Z,10.93
2019-02-27T12:40:08.768Z,8.43
2019-02-27T12:42:40.281Z,11.00
2019-02-27T12:45:09.019Z,10.53
2019-02-27T12:47:37.716Z,9.80
2019-02-27T12:50:08.051Z,8.03
2019-02-27T12:52:36.478Z,16.30
2019-02-27T12:55:05.248Z,7.87
2019-02-27T12:57:34.104Z,8.87
2019-02-27T13:00:02.598Z,12.73
2019-02-27T13:02:35.628Z,8.10
2019-02-27T13:05:01.337Z,9.30
2019-02-27T13:07:29.748Z,8.23
2019-02-27T13:09:58.760Z,6.67
2019-02-27T13:12:27.948Z,6.03
2019-02-27T13:14:56.391Z,9.10
2019-02-27T13:17:24.851Z,7.43
2019-02-27T13:19:53.391Z,7.03
2019-02-27T13:22:21.883Z,7.03
2019-02-27T13:24:50.958Z,9.77
2019-02-27T13:27:19.493Z,8.00
2019-02-27T13:29:48.006Z,7.20
2019-02-27T13:32:16.565Z,7.70
2019-02-27T13:34:45.393Z,9.00
2019-02-27T13:37:15.389Z,10.20
2019-02-27T13:39:43.912Z,10.10
2019-02-27T13:42:12.452Z,11.67
2019-02-27T13:44:40.959Z,10.17
2019-02-27T13:47:09.459Z,12.07
2019-02-27T13:49:38.000Z,17.17
2019-02-27T13:52:06.495Z,10.77
2019-02-27T13:54:38.170Z,11.80
2019-02-27T13:57:06.733Z,11.27
2019-02-27T13:59:35.921Z,11.80
2019-02-27T14:02:04.908Z,12.33
2019-02-27T14:04:33.503Z,16.70
2019-02-27T14:07:01.999Z,13.60
2019-02-27T14:09:30.445Z,18.40
2019-02-27T14:11:59.419Z,9.60
2019-02-27T14:14:27.987Z,10.43
2019-02-27T14:16:56.427Z,9.90
2019-02-27T14:19:24.899Z,10.67
2019-02-27T14:21:53.411Z,10.10
2019-02-27T14:24:21.926Z,11.93
2019-02-27T14:26:50.431Z,10.47
2019-02-27T14:29:18.873Z,17.13
2019-02-27T14:31:54.196Z,15.50
2019-02-27T14:34:27.109Z,10.50
2019-02-27T14:36:52.932Z,11.33
2019-02-27T14:39:21.312Z,10.00
2019-02-27T14:41:51.272Z,11.87
2019-02-27T14:44:19.877Z,9.97
2019-02-27T14:46:48.267Z,13.50
2019-02-27T14:49:16.615Z,9.70
2019-02-27T14:51:45.027Z,11.13
2019-02-27T14:54:13.542Z,11.77
2019-02-27T14:56:42.714Z,12.30
2019-02-27T14:59:11.192Z,10.43
2019-02-27T15:01:39.829Z,11.53
2019-02-27T15:04:08.259Z,9.90
2019-02-27T15:06:36.695Z,10.50
2019-02-27T15:09:06.428Z,9.57
2019-02-27T15:11:35.223Z,9.20
2019-02-27T15:14:03.772Z,8.00
2019-02-27T15:16:32.228Z,10.50
2019-02-27T15:19:00.654Z,9.67
2019-02-27T15:21:29.120Z,11.03
2019-02-27T15:23:58.193Z,7.73
2019-02-27T15:26:28.559Z,10.10
2019-02-27T15:28:56.971Z,9.83
2019-02-27T15:31:25.359Z,7.30
2019-02-27T15:33:54.546Z,9.27
2019-02-27T15:36:22.925Z,8.87
2019-02-27T15:38:52.387Z,8.60
2019-02-27T15:41:20.955Z,6.77
2019-02-27T15:43:59.691Z,7.30
2019-02-27T15:46:22.052Z,10.03
2019-02-27T15:48:49.748Z,8.63
2019-02-27T15:51:18.657Z,6.77
2019-02-27T15:53:50.042Z,6.73
2019-02-27T15:56:17.528Z,8.87
2019-02-27T15:58:45.901Z,7.40
2019-02-27T16:01:14.333Z,7.50
2019-02-27T16:03:45.542Z,8.37
2019-02-27T16:06:13.084Z,8.47
2019-02-27T16:08:41.435Z,7.80
2019-02-27T16:11:09.865Z,7.57
2019-02-27T16:13:38.235Z,10.30
2019-02-27T16:16:06.680Z,6.67
2019-02-27T16:18:37.050Z,8.97
2019-02-27T16:21:05.277Z,8.07
2019-02-27T16:23:37.267Z,12.87
2019-02-27T16:26:03.915Z,15.93
2019-02-27T16:28:32.318Z,21.73
2019-02-27T16:31:05.895Z,31.07
2019-02-27T16:33:30.833Z,32.73
2019-02-27T16:35:59.264Z,36.13
2019-02-27T16:38:28.351Z,37.87
2019-02-27T16:40:57.851Z,38.77
2019-02-27T16:43:26.376Z,37.97
2019-02-27T16:45:54.812Z,36.33
2019-02-27T16:48:23.272Z,24.97
2019-02-27T16:50:51.641Z,25.87
2019-02-27T16:53:20.084Z,26.23
2019-02-27T16:55:48.523Z,10.60
2019-02-27T16:58:16.975Z,16.03
2019-02-27T17:00:45.566Z,23.27
2019-02-27T17:03:14.065Z,20.40
2019-02-27T17:05:43.065Z,19.27
2019-02-27T17:08:12.365Z,13.73
2019-02-27T17:10:40.805Z,15.03
2019-02-27T17:13:14.672Z,14.43
2019-02-27T17:15:40.150Z,8.87
2019-02-27T17:18:08.637Z,9.83
2019-02-27T17:20:37.087Z,8.80
2019-02-27T17:23:10.433Z,7.13
2019-02-27T17:25:35.982Z,9.13
2019-02-27T17:28:04.432Z,7.90
2019-02-27T17:30:36.582Z,12.10
2019-02-27T17:33:04.309Z,10.23
2019-02-27T17:35:33.592Z,8.57
2019-02-27T17:38:07.960Z,9.17
2019-02-27T17:40:37.686Z,9.53
2019-02-27T17:43:06.899Z,10.17
2019-02-27T17:45:35.426Z,11.20
2019-02-27T17:48:03.879Z,13.40
2019-02-27T17:50:32.446Z,7.60
2019-02-27T17:53:00.989Z,13.43
2019-02-27T17:55:29.419Z,14.77
2019-02-27T17:57:59.147Z,12.17
2019-02-27T18:00:35.424Z,11.60
2019-02-27T18:03:04.926Z,12.73
2019-02-27T18:05:34.342Z,9.43
2019-02-27T18:08:03.494Z,10.30
2019-02-27T18:10:37.242Z,9.53
2019-02-27T18:13:02.200Z,13.13
2019-02-27T18:15:30.675Z,10.07
2019-02-27T18:17:59.206Z,7.97
2019-02-27T18:20:27.572Z,12.37
2019-02-27T18:22:56.019Z,8.30
2019-02-27T18:25:24.543Z,8.63
2019-02-27T18:27:53.043Z,11.43
2019-02-27T18:30:21.495Z,8.70
2019-02-27T18:32:49.953Z,10.27
2019-02-27T18:35:18.500Z,8.73
2019-02-27T18:37:46.947Z,10.03
2019-02-27T18:40:16.588Z,10.13
2019-02-27T18:42:45.112Z,9.77
2019-02-27T18:45:15.272Z,10.00
2019-02-27T18:47:44.667Z,11.60
2019-02-27T18:50:13.387Z,10.07
2019-02-27T18:52:41.839Z,5.47
2019-02-27T18:55:11.037Z,11.53
2019-02-27T18:57:39.623Z,13.50
2019-02-27T19:00:10.433Z,10.67
2019-02-27T19:02:38.867Z,8.57
2019-02-27T19:05:07.768Z,11.07
2019-02-27T19:07:36.191Z,13.00
2019-02-27T19:10:06.784Z,10.57
2019-02-27T19:12:35.043Z,7.87
2019-02-27T19:15:03.471Z,10.63
2019-02-27T19:17:33.107Z,9.27
2019-02-27T19:20:09.416Z,10.70
2019-02-27T19:22:37.849Z,8.77
2019-02-27T19:25:06.281Z,11.83
2019-02-27T19:27:34.836Z,7.93
2019-02-27T19:30:06.298Z,10.63
2019-02-27T19:33:00.230Z,10.93
2019-02-27T19:35:25.504Z,9.20
2019-02-27T19:37:54.003Z,10.07
2019-02-27T19:40:23.645Z,11.57
2019-02-27T19:42:53.301Z,11.50
2019-02-27T19:45:21.824Z,10.73
2019-02-27T19:47:54.638Z,9.37
2019-02-27T19:50:20.551Z,9.83
2019-02-27T19:52:49.064Z,9.80
2019-02-27T19:55:17.525Z,11.93
2019-02-27T19:57:46.000Z,13.93
2019-02-27T20:00:15.692Z,9.60
2019-02-27T20:02:44.282Z,9.03
2019-02-27T20:05:12.731Z,11.63
2019-02-27T20:07:41.187Z,7.50
2019-02-27T20:10:10.075Z,12.93
2019-02-27T20:12:38.519Z,12.63
2019-02-27T20:15:08.314Z,11.43
2019-02-27T20:17:37.819Z,10.13
2019-02-27T20:20:06.432Z,12.73
2019-02-27T20:22:35.216Z,13.00
2019-02-27T20:25:06.458Z,10.13
2019-02-27T20:27:34.048Z,14.53
2019-02-27T20:30:03.795Z,11.30
2019-02-27T20:32:32.243Z,10.17
2019-02-27T20:35:03.867Z,9.90
2019-02-27T20:37:32.339Z,11.97
2019-02-27T20:40:00.832Z,12.63
2019-02-27T20:42:29.419Z,10.97
2019-02-27T20:44:57.985Z,15.90
2019-02-27T20:47:26.485Z,13.30
2019-02-27T20:49:54.896Z,16.47
2019-02-27T20:52:23.648Z,16.50
2019-02-27T20:54:52.078Z,13.90
2019-02-27T20:57:20.574Z,15.03
2019-02-27T20:59:49.105Z,14.40
2019-02-27T21:02:18.711Z,12.37
2019-02-27T21:04:48.109Z,14.47
2019-02-27T21:07:22.176Z,11.80
2019-02-27T21:09:46.916Z,13.27
2019-02-27T21:12:17.476Z,14.93
2019-02-27T21:14:45.976Z,19.73
2019-02-27T21:17:19.408Z,14.00
2019-02-27T21:19:45.916Z,17.17
2019-02-27T21:22:14.492Z,14.50
2019-02-27T21:24:43.144Z,13.27
2019-02-27T21:27:11.719Z,13.30
2019-02-27T21:29:43.420Z,13.27
2019-02-27T21:32:10.627Z,13.30
2019-02-27T21:34:39.340Z,12.73
2019-02-27T21:37:09.984Z,16.53
2019-02-27T21:39:38.153Z,15.23
2019-02-27T21:42:06.719Z,14.60
2019-02-27T21:44:35.402Z,16.77
2019-02-27T21:47:03.845Z,16.03
2019-02-27T21:49:32.837Z,17.97
2019-02-27T21:52:01.355Z,14.23
2019-02-27T21:54:29.785Z,15.63
2019-02-27T21:56:58.221Z,15.80
2019-02-27T21:59:26.707Z,15.10
2019-02-27T22:01:56.240Z,15.30
2019-02-27T22:04:25.147Z,11.03
2019-02-27T22:06:53.563Z,14.93
2019-02-27T22:09:21.981Z,14.33
2019-02-27T22:11:50.325Z,16.57
2019-02-27T22:14:18.786Z,16.60
2019-02-27T22:16:47.236Z,18.40
2019-02-27T22:19:18.894Z,15.27
2019-02-27T22:21:45.799Z,16.33
2019-02-27T22:24:14.168Z,20.13
2019-02-27T22:26:42.617Z,17.37
2019-02-27T22:29:10.996Z,22.33
2019-02-27T22:31:40.592Z,15.53
2019-02-27T22:34:09.668Z,15.97
2019-02-27T22:36:38.043Z,20.87
2019-02-27T22:39:06.636Z,20.03
2019-02-27T22:41:35.079Z,24.60
2019-02-27T22:44:03.556Z,22.87
2019-02-27T22:46:31.984Z,23.47
2019-02-27T22:49:01.166Z,23.53
2019-02-27T22:51:29.871Z,19.30
2019-02-27T22:53:59.423Z,20.37
2019-02-27T22:56:28.293Z,23.00
2019-02-27T22:58:59.404Z,20.80
2019-02-27T23:01:32.885Z,18.30
2019-02-27T23:04:05.245Z,20.37
2019-02-27T23:06:33.748Z,19.97
2019-02-27T23:09:02.186Z,24.37
2019-02-27T23:11:30.675Z,20.47
2019-02-27T23:13:59.107Z,19.40
2019-02-27T23:16:29.783Z,20.47
2019-02-27T23:18:57.685Z,24.57
2019-02-27T23:21:26.779Z,25.23
2019-02-27T23:23:55.774Z,24.83
2019-02-27T23:26:24.176Z,24.13
2019-02-27T23:28:52.630Z,23.93
2019-02-27T23:31:23.312Z,23.17
2019-02-27T23:33:51.147Z,30.93
2019-02-27T23:36:22.042Z,26.53
2019-02-27T23:38:49.683Z,25.23
2019-02-27T23:41:22.795Z,23.77
2019-02-27T23:43:48.287Z,24.00
2019-02-27T23:46:18.599Z,29.43
2019-02-27T23:48:46.743Z,27.13
2019-02-27T23:51:16.782Z,28.97
2019-02-27T23:53:45.412Z,23.70
2019-02-27T23:56:19.364Z,27.80
2019-02-27T23:58:44.017Z,30.80
